Terminal Aerodrome Forecast
Issued by NWS Amarillo, TX

Home | Current Version | Previous Version | Text Only | Print | Product List | Glossary On
Versions: 1 2 3 4 5 6 7 8 9 10 11 12 13 14 15 16
000
FTUS44 KAMA 221120
TAFAMA
TAF
KAMA 221120Z 2212/2312 19011KT P6SM SKC
     FM230100 15012G20KT P6SM BKN150
     FM230600 12009KT P6SM BKN040=

USA.gov is the U.S. government's official web portal to all federal, state and local government web resources and services.